Terminal Aerodrome Forecast
Issued by NWS Amarillo, TX

Home | Current Version | Previous Version | Text Only | Print | Product List | Glossary On
Versions: 1 2 3 4 5 6 7 8 9 10 11 12 13 14 15 16 17 18
864
FTUS44 KAMA 281731
TAFAMA
TAF
KAMA 281731Z 2818/2918 01008KT P6SM FEW120 SCT200
     FM282100 16013KT P6SM FEW080
     FM290600 17010KT P6SM SCT040 BKN110
     FM291200 18008KT P6SM SCT080=

USA.gov is the U.S. government's official web portal to all federal, state and local government web resources and services.